Time;durP1;ratioP1;P1;durP2;ratioP2;P2;SDS_P1;SDS_P2;PMS_P1;PMS_P2;Temp;Humidity;BMP_temperature;BMP_pressure;BME280_temperature;BME280_humidity;BME280_pressure;Samples;Min_cycle;Max_cycle;Signal;HPM_P1;HPM_P2
2021/01/24 13:01:55;;;;;;;1.55;1.30;;;;;;;;;;732716;23;21766;-93
2021/01/24 13:04:22;;;;;;;3.08;1.83;;;;;;;;;;4832034;29;20244;-85
2021/01/24 13:06:50;;;;;;;1.38;1.17;;;;;;;;;;4814007;29;20211;-84
2021/01/24 13:09:18;;;;;;;2.38;1.45;;;;;;;;;;4813195;29;20208;-83
2021/01/24 13:11:45;;;;;;;2.33;1.40;;;;;;;;;;4813625;29;20678;-85
2021/01/24 13:14:13;;;;;;;1.92;1.30;;;;;;;;;;4825403;29;20235;-85
2021/01/24 13:16:40;;;;;;;1.38;1.23;;;;;;;;;;4810530;29;20212;-84
2021/01/24 13:19:09;;;;;;;1.77;1.45;;;;;;;;;;4818615;29;20228;-82
2021/01/24 13:21:37;;;;;;;1.52;1.40;;;;;;;;;;4816567;29;20591;-83
2021/01/24 13:24:05;;;;;;;2.17;1.23;;;;;;;;;;4810530;29;20706;-82
2021/01/24 13:26:33;;;;;;;1.50;1.40;;;;;;;;;;4810470;29;20588;-85
2021/01/24 13:29:00;;;;;;;2.58;1.60;;;;;;;;;;4809932;29;20219;-82
2021/01/24 13:31:28;;;;;;;2.30;1.42;;;;;;;;;;4809700;29;20590;-85
2021/01/24 13:33:56;;;;;;;1.92;1.50;;;;;;;;;;4825827;29;20236;-85
2021/01/24 13:36:25;;;;;;;1.65;1.55;;;;;;;;;;4811147;29;20211;-84
2021/01/24 13:38:53;;;;;;;2.75;1.50;;;;;;;;;;4806807;29;20707;-84
2021/01/24 13:41:20;;;;;;;2.35;1.38;;;;;;;;;;4813723;29;20200;-82
2021/01/24 13:43:48;;;;;;;2.10;1.30;;;;;;;;;;4806060;29;20759;-87
2021/01/24 13:46:15;;;;;;;1.23;1.08;;;;;;;;;;4807741;29;20229;-82
2021/01/24 13:48:44;;;;;;;2.58;1.73;;;;;;;;;;4800147;29;20212;-89
2021/01/24 13:51:12;;;;;;;1.45;1.10;;;;;;;;;;4810720;29;20216;-84
2021/01/24 13:53:40;;;;;;;1.30;1.00;;;;;;;;;;4810508;29;20228;-85
2021/01/24 13:56:08;;;;;;;2.65;1.30;;;;;;;;;;4825248;29;20212;-86
2021/01/24 13:58:35;;;;;;;1.23;1.00;;;;;;;;;;4826043;29;20223;-88
2021/01/24 14:01:03;;;;;;;1.30;1.20;;;;;;;;;;4826358;29;20215;-84
2021/01/24 14:03:31;;;;;;;2.00;1.13;;;;;;;;;;4825197;29;20235;-85
2021/01/24 14:05:59;;;;;;;1.97;1.33;;;;;;;;;;4826083;29;20211;-86
2021/01/24 14:08:26;;;;;;;1.70;1.30;;;;;;;;;;4825959;29;20212;-84
2021/01/24 14:10:55;;;;;;;1.60;1.30;;;;;;;;;;4810762;29;20211;-85
2021/01/24 14:13:22;;;;;;;1.00;0.90;;;;;;;;;;4820967;29;20232;-85
2021/01/24 14:15:50;;;;;;;3.77;1.00;;;;;;;;;;4807145;29;20216;-87
2021/01/24 14:18:19;;;;;;;1.97;0.90;;;;;;;;;;4814454;29;20239;-88
2021/01/24 14:20:47;;;;;;;1.07;0.93;;;;;;;;;;4820882;29;20218;-90
2021/01/24 14:23:15;;;;;;;1.83;1.10;;;;;;;;;;4827458;29;20224;-89
2021/01/24 14:25:42;;;;;;;1.70;1.03;;;;;;;;;;4827522;29;20224;-89
2021/01/24 14:28:11;;;;;;;2.20;0.93;;;;;;;;;;4827735;29;20214;-86
2021/01/24 14:30:39;;;;;;;0.80;0.80;;;;;;;;;;4827460;29;20207;-84
2021/01/24 14:33:06;;;;;;;1.50;0.83;;;;;;;;;;4825544;29;20223;-82
2021/01/24 14:35:35;;;;;;;1.27;0.83;;;;;;;;;;4825823;29;20203;-82
2021/01/24 14:38:02;;;;;;;2.30;0.90;;;;;;;;;;4805638;29;20629;-84
2021/01/24 14:40:30;;;;;;;1.67;1.00;;;;;;;;;;4803391;29;20205;-85
2021/01/24 14:42:58;;;;;;;1.53;0.93;;;;;;;;;;4818754;29;20727;-85
2021/01/24 14:45:35;;;;;;;6.27;1.23;;;;;;;;;;4818909;29;20192;-86
2021/01/24 14:48:04;;;;;;;2.00;1.20;;;;;;;;;;4834325;29;20603;-83
2021/01/24 14:50:32;;;;;;;2.93;0.93;;;;;;;;;;4835018;29;20213;-90
2021/01/24 14:53:17;;;;;;;1.50;1.13;;;;;;;;;;4832410;29;20243;-84
2021/01/24 14:55:45;;;;;;;2.43;1.10;;;;;;;;;;4827594;29;20204;-85
2021/01/24 14:58:12;;;;;;;2.43;1.10;;;;;;;;;;4828051;29;20207;-86
2021/01/24 15:00:41;;;;;;;1.33;1.20;;;;;;;;;;4823605;29;20219;-90
2021/01/24 15:03:09;;;;;;;1.33;1.10;;;;;;;;;;4819679;29;20240;-84
2021/01/24 15:05:37;;;;;;;1.93;1.13;;;;;;;;;;4814121;29;20219;-83
2021/01/24 15:08:09;;;;;;;2.10;1.10;;;;;;;;;;4814943;29;20215;-84
2021/01/24 15:10:37;;;;;;;1.23;1.00;;;;;;;;;;4800137;29;20205;-83
2021/01/24 15:13:05;;;;;;;1.73;1.10;;;;;;;;;;4818982;29;20231;-85
2021/01/24 15:15:33;;;;;;;2.63;1.70;;;;;;;;;;4829147;29;20218;-86
2021/01/24 15:18:02;;;;;;;3.00;1.20;;;;;;;;;;4815855;29;20219;-84
2021/01/24 15:20:30;;;;;;;1.77;1.50;;;;;;;;;;4817586;29;20231;-83
2021/01/24 15:22:58;;;;;;;1.60;1.00;;;;;;;;;;4817506;29;20235;-83
2021/01/24 15:25:30;;;;;;;1.23;1.10;;;;;;;;;;4821251;29;20196;-83
2021/01/24 15:27:57;;;;;;;1.90;1.00;;;;;;;;;;4839758;29;20210;-85
2021/01/24 15:30:25;;;;;;;1.23;1.13;;;;;;;;;;4836398;29;20210;-84
2021/01/24 15:32:53;;;;;;;2.17;1.23;;;;;;;;;;4834991;29;20227;-83
2021/01/24 15:35:22;;;;;;;1.90;1.10;;;;;;;;;;4835956;29;20220;-88
2021/01/24 15:37:52;;;;;;;2.30;1.30;;;;;;;;;;4821033;29;20208;-83
2021/01/24 15:40:20;;;;;;;2.40;1.47;;;;;;;;;;4820507;29;20227;-86
2021/01/24 15:42:48;;;;;;;2.67;1.40;;;;;;;;;;4836120;29;20200;-83
2021/01/24 15:45:16;;;;;;;1.80;1.30;;;;;;;;;;4820111;29;20219;-83
2021/01/24 15:47:44;;;;;;;1.30;0.80;;;;;;;;;;4833615;29;20204;-84
2021/01/24 15:50:13;;;;;;;2.97;1.33;;;;;;;;;;4818680;29;20219;-83
2021/01/24 16:04:14;;;;;;;3.43;1.70;;;;;;;;;;5052374;23;20221;-90
2021/01/24 16:17:44;;;;;;;2.17;1.53;;;;;;;;;;4875119;29;20179;-81
2021/01/24 17:15:20;;;;;;;4.87;2.60;;;;;;;;;;4875050;29;20217;-83
2021/01/24 17:31:26;;;;;;;4.17;3.20;;;;;;;;;;4868508;29;20217;-83
2021/01/24 17:34:12;;;;;;;4.80;3.40;;;;;;;;;;4871100;29;20598;-83
2021/01/24 17:52:50;;;;;;;6.13;4.37;;;;;;;;;;4869186;29;20673;-83
